sensor_id;sensor_type;location;lat;lon;timestamp;temperature;humidity
21807;DHT22;11065;50.786;7.840;2023-06-22T00:01:26;23.20;55.70
21807;DHT22;11065;50.786;7.840;2023-06-22T00:03:55;23.20;55.80
21807;DHT22;11065;50.786;7.840;2023-06-22T00:06:23;23.10;55.80
21807;DHT22;11065;50.786;7.840;2023-06-22T00:08:51;23.20;55.90
21807;DHT22;11065;50.786;7.840;2023-06-22T00:11:19;23.20;56.00
21807;DHT22;11065;50.786;7.840;2023-06-22T00:13:48;23.20;56.00
21807;DHT22;11065;50.786;7.840;2023-06-22T00:16:17;23.20;56.10
21807;DHT22;11065;50.786;7.840;2023-06-22T00:18:45;23.20;56.10
21807;DHT22;11065;50.786;7.840;2023-06-22T00:21:14;23.20;56.10
21807;DHT22;11065;50.786;7.840;2023-06-22T00:23:42;23.20;56.10
21807;DHT22;11065;50.786;7.840;2023-06-22T00:26:10;23.20;56.10
21807;DHT22;11065;50.786;7.840;2023-06-22T00:28:39;23.10;56.10
21807;DHT22;11065;50.786;7.840;2023-06-22T00:31:08;23.10;56.20
21807;DHT22;11065;50.786;7.840;2023-06-22T00:33:37;23.10;56.30
21807;DHT22;11065;50.786;7.840;2023-06-22T00:36:05;23.00;56.30
21807;DHT22;11065;50.786;7.840;2023-06-22T00:38:34;23.00;56.40
21807;DHT22;11065;50.786;7.840;2023-06-22T00:41:08;23.00;56.50
21807;DHT22;11065;50.786;7.840;2023-06-22T00:43:36;22.90;56.50
21807;DHT22;11065;50.786;7.840;2023-06-22T00:46:04;22.90;56.60
21807;DHT22;11065;50.786;7.840;2023-06-22T00:48:33;22.90;56.60
21807;DHT22;11065;50.786;7.840;2023-06-22T00:51:04;22.90;56.80
21807;DHT22;11065;50.786;7.840;2023-06-22T00:53:32;22.90;56.80
21807;DHT22;11065;50.786;7.840;2023-06-22T00:56:02;22.90;56.90
21807;DHT22;11065;50.786;7.840;2023-06-22T00:58:30;22.90;56.90
21807;DHT22;11065;50.786;7.840;2023-06-22T01:00:59;22.90;56.90
21807;DHT22;11065;50.786;7.840;2023-06-22T01:03:28;22.90;57.00
21807;DHT22;11065;50.786;7.840;2023-06-22T01:06:02;22.90;57.00
21807;DHT22;11065;50.786;7.840;2023-06-22T01:08:44;22.90;57.40
21807;DHT22;11065;50.786;7.840;2023-06-22T01:11:17;22.90;57.50
21807;DHT22;11065;50.786;7.840;2023-06-22T01:13:52;22.90;57.30
21807;DHT22;11065;50.786;7.840;2023-06-22T01:16:25;22.90;57.40
21807;DHT22;11065;50.786;7.840;2023-06-22T01:18:56;22.90;57.40
21807;DHT22;11065;50.786;7.840;2023-06-22T01:21:30;23.00;57.50
21807;DHT22;11065;50.786;7.840;2023-06-22T01:24:15;23.00;57.60
21807;DHT22;11065;50.786;7.840;2023-06-22T01:26:54;23.00;57.70
21807;DHT22;11065;50.786;7.840;2023-06-22T01:29:27;23.00;57.70
21807;DHT22;11065;50.786;7.840;2023-06-22T01:31:56;23.00;57.50
21807;DHT22;11065;50.786;7.840;2023-06-22T01:34:29;23.00;57.40
21807;DHT22;11065;50.786;7.840;2023-06-22T01:37:00;23.00;57.50
21807;DHT22;11065;50.786;7.840;2023-06-22T01:39:29;23.10;57.60
21807;DHT22;11065;50.786;7.840;2023-06-22T01:41:58;23.10;57.60
21807;DHT22;11065;50.786;7.840;2023-06-22T01:44:29;23.10;57.60
21807;DHT22;11065;50.786;7.840;2023-06-22T01:46:57;23.10;57.70
21807;DHT22;11065;50.786;7.840;2023-06-22T01:49:25;23.10;57.60
21807;DHT22;11065;50.786;7.840;2023-06-22T01:51:53;23.10;57.70
21807;DHT22;11065;50.786;7.840;2023-06-22T01:54:22;23.10;57.60
21807;DHT22;11065;50.786;7.840;2023-06-22T01:56:50;23.10;57.60
21807;DHT22;11065;50.786;7.840;2023-06-22T01:59:29;23.10;57.60
21807;DHT22;11065;50.786;7.840;2023-06-22T02:02:06;23.10;57.90
21807;DHT22;11065;50.786;7.840;2023-06-22T02:04:42;23.10;58.00
21807;DHT22;11065;50.786;7.840;2023-06-22T02:07:14;23.10;58.00
21807;DHT22;11065;50.786;7.840;2023-06-22T02:09:45;23.10;58.00
21807;DHT22;11065;50.786;7.840;2023-06-22T02:12:17;23.00;58.00
21807;DHT22;11065;50.786;7.840;2023-06-22T02:14:47;23.10;58.40
21807;DHT22;11065;50.786;7.840;2023-06-22T02:17:18;23.00;58.20
21807;DHT22;11065;50.786;7.840;2023-06-22T02:19:46;23.00;58.50
21807;DHT22;11065;50.786;7.840;2023-06-22T02:22:14;23.10;58.50
21807;DHT22;11065;50.786;7.840;2023-06-22T02:24:43;23.10;58.40
21807;DHT22;11065;50.786;7.840;2023-06-22T02:27:11;23.10;58.40
21807;DHT22;11065;50.786;7.840;2023-06-22T02:29:40;23.10;58.30
21807;DHT22;11065;50.786;7.840;2023-06-22T02:32:09;23.10;58.40
21807;DHT22;11065;50.786;7.840;2023-06-22T02:34:39;23.10;58.30
21807;DHT22;11065;50.786;7.840;2023-06-22T02:37:09;23.10;58.50
21807;DHT22;11065;50.786;7.840;2023-06-22T02:39:39;23.10;58.60
21807;DHT22;11065;50.786;7.840;2023-06-22T02:42:08;23.10;58.60
21807;DHT22;11065;50.786;7.840;2023-06-22T02:44:37;23.00;58.70
21807;DHT22;11065;50.786;7.840;2023-06-22T02:47:05;23.00;58.80
21807;DHT22;11065;50.786;7.840;2023-06-22T02:49:34;23.00;59.00
21807;DHT22;11065;50.786;7.840;2023-06-22T02:52:04;23.00;59.10
21807;DHT22;11065;50.786;7.840;2023-06-22T02:54:32;23.00;59.40
21807;DHT22;11065;50.786;7.840;2023-06-22T02:57:00;23.00;59.30
21807;DHT22;11065;50.786;7.840;2023-06-22T02:59:30;23.10;59.40
21807;DHT22;11065;50.786;7.840;2023-06-22T03:02:07;23.10;59.50
21807;DHT22;11065;50.786;7.840;2023-06-22T03:04:35;23.10;59.50
21807;DHT22;11065;50.786;7.840;2023-06-22T03:07:05;23.10;59.50
21807;DHT22;11065;50.786;7.840;2023-06-22T03:09:33;23.10;59.50
21807;DHT22;11065;50.786;7.840;2023-06-22T03:12:02;23.10;59.80
21807;DHT22;11065;50.786;7.840;2023-06-22T03:14:39;23.10;59.50
21807;DHT22;11065;50.786;7.840;2023-06-22T03:17:07;23.10;59.60
21807;DHT22;11065;50.786;7.840;2023-06-22T03:19:36;23.10;59.70
21807;DHT22;11065;50.786;7.840;2023-06-22T03:22:06;23.10;59.80
21807;DHT22;11065;50.786;7.840;2023-06-22T03:24:34;23.10;60.10
21807;DHT22;11065;50.786;7.840;2023-06-22T03:27:04;23.10;59.90
21807;DHT22;11065;50.786;7.840;2023-06-22T03:29:33;23.10;60.00
21807;DHT22;11065;50.786;7.840;2023-06-22T03:32:02;23.10;60.00
21807;DHT22;11065;50.786;7.840;2023-06-22T03:34:32;23.10;59.90
21807;DHT22;11065;50.786;7.840;2023-06-22T03:37:01;23.10;59.80
21807;DHT22;11065;50.786;7.840;2023-06-22T03:39:31;23.00;59.80
21807;DHT22;11065;50.786;7.840;2023-06-22T03:41:59;23.00;59.90
21807;DHT22;11065;50.786;7.840;2023-06-22T03:44:27;23.00;59.90
21807;DHT22;11065;50.786;7.840;2023-06-22T03:46:55;23.00;60.10
21807;DHT22;11065;50.786;7.840;2023-06-22T03:49:23;23.00;60.40
21807;DHT22;11065;50.786;7.840;2023-06-22T03:51:51;23.00;60.50
21807;DHT22;11065;50.786;7.840;2023-06-22T03:54:19;23.00;60.70
21807;DHT22;11065;50.786;7.840;2023-06-22T03:56:49;23.00;60.90
21807;DHT22;11065;50.786;7.840;2023-06-22T03:59:17;23.00;61.20
21807;DHT22;11065;50.786;7.840;2023-06-22T04:01:45;23.00;61.10
21807;DHT22;11065;50.786;7.840;2023-06-22T04:04:13;23.00;61.10
21807;DHT22;11065;50.786;7.840;2023-06-22T04:06:41;23.00;61.20
21807;DHT22;11065;50.786;7.840;2023-06-22T04:09:10;23.00;61.20
21807;DHT22;11065;50.786;7.840;2023-06-22T04:11:38;23.10;61.30
21807;DHT22;11065;50.786;7.840;2023-06-22T04:14:07;23.10;61.30
21807;DHT22;11065;50.786;7.840;2023-06-22T04:16:35;23.00;61.30
21807;DHT22;11065;50.786;7.840;2023-06-22T04:19:03;23.10;61.10
21807;DHT22;11065;50.786;7.840;2023-06-22T04:21:31;23.10;60.90
21807;DHT22;11065;50.786;7.840;2023-06-22T04:23:59;23.00;60.90
21807;DHT22;11065;50.786;7.840;2023-06-22T04:26:27;23.00;61.10
21807;DHT22;11065;50.786;7.840;2023-06-22T04:28:55;23.00;61.40
21807;DHT22;11065;50.786;7.840;2023-06-22T04:31:25;23.00;61.50
21807;DHT22;11065;50.786;7.840;2023-06-22T04:34:00;23.00;61.70
21807;DHT22;11065;50.786;7.840;2023-06-22T04:36:34;23.00;61.70
21807;DHT22;11065;50.786;7.840;2023-06-22T04:39:06;23.00;61.80
21807;DHT22;11065;50.786;7.840;2023-06-22T04:41:37;23.10;61.70
21807;DHT22;11065;50.786;7.840;2023-06-22T04:44:10;23.10;61.70
21807;DHT22;11065;50.786;7.840;2023-06-22T04:46:40;23.10;61.70
21807;DHT22;11065;50.786;7.840;2023-06-22T04:49:08;23.10;61.90
21807;DHT22;11065;50.786;7.840;2023-06-22T04:51:41;23.10;61.80
21807;DHT22;11065;50.786;7.840;2023-06-22T04:54:10;23.10;61.90
21807;DHT22;11065;50.786;7.840;2023-06-22T04:56:38;23.00;61.60
21807;DHT22;11065;50.786;7.840;2023-06-22T04:59:07;23.10;61.70
21807;DHT22;11065;50.786;7.840;2023-06-22T05:01:41;23.10;61.60
21807;DHT22;11065;50.786;7.840;2023-06-22T05:04:09;23.10;61.80
21807;DHT22;11065;50.786;7.840;2023-06-22T05:06:37;23.10;61.80
21807;DHT22;11065;50.786;7.840;2023-06-22T05:09:07;23.10;61.90
21807;DHT22;11065;50.786;7.840;2023-06-22T05:11:35;23.10;62.00
21807;DHT22;11065;50.786;7.840;2023-06-22T05:14:03;23.10;62.10
21807;DHT22;11065;50.786;7.840;2023-06-22T05:16:31;23.10;62.30
21807;DHT22;11065;50.786;7.840;2023-06-22T05:19:00;23.10;62.50
21807;DHT22;11065;50.786;7.840;2023-06-22T05:21:30;23.10;62.70
21807;DHT22;11065;50.786;7.840;2023-06-22T05:23:58;23.10;62.60
21807;DHT22;11065;50.786;7.840;2023-06-22T05:26:29;23.10;62.80
21807;DHT22;11065;50.786;7.840;2023-06-22T05:28:58;23.20;63.10
21807;DHT22;11065;50.786;7.840;2023-06-22T05:31:27;23.20;63.20
21807;DHT22;11065;50.786;7.840;2023-06-22T05:33:56;23.20;63.20
21807;DHT22;11065;50.786;7.840;2023-06-22T05:36:25;23.30;63.40
21807;DHT22;11065;50.786;7.840;2023-06-22T05:38:53;23.30;63.50
21807;DHT22;11065;50.786;7.840;2023-06-22T05:41:21;23.30;63.40
21807;DHT22;11065;50.786;7.840;2023-06-22T05:43:49;23.40;63.60
21807;DHT22;11065;50.786;7.840;2023-06-22T05:46:18;23.40;63.70
21807;DHT22;11065;50.786;7.840;2023-06-22T05:48:46;23.40;63.70
21807;DHT22;11065;50.786;7.840;2023-06-22T05:51:14;23.40;63.60
21807;DHT22;11065;50.786;7.840;2023-06-22T05:53:44;23.50;63.80
21807;DHT22;11065;50.786;7.840;2023-06-22T05:56:16;23.50;64.00
21807;DHT22;11065;50.786;7.840;2023-06-22T05:58:44;23.50;63.70
21807;DHT22;11065;50.786;7.840;2023-06-22T06:01:12;23.60;63.70
21807;DHT22;11065;50.786;7.840;2023-06-22T06:03:41;23.60;63.60
21807;DHT22;11065;50.786;7.840;2023-06-22T06:06:11;23.60;63.60
21807;DHT22;11065;50.786;7.840;2023-06-22T06:08:39;23.60;63.60
21807;DHT22;11065;50.786;7.840;2023-06-22T06:11:08;23.60;63.50
21807;DHT22;11065;50.786;7.840;2023-06-22T06:13:36;23.70;63.80
21807;DHT22;11065;50.786;7.840;2023-06-22T06:16:04;23.70;63.80
21807;DHT22;11065;50.786;7.840;2023-06-22T06:18:32;23.80;63.70
21807;DHT22;11065;50.786;7.840;2023-06-22T06:21:00;23.80;63.70
21807;DHT22;11065;50.786;7.840;2023-06-22T06:23:28;23.90;63.90
21807;DHT22;11065;50.786;7.840;2023-06-22T06:25:56;24.00;64.00
21807;DHT22;11065;50.786;7.840;2023-06-22T06:28:26;24.00;63.90
21807;DHT22;11065;50.786;7.840;2023-06-22T06:30:54;24.10;64.00
21807;DHT22;11065;50.786;7.840;2023-06-22T06:33:22;24.20;64.00
21807;DHT22;11065;50.786;7.840;2023-06-22T06:35:52;24.20;64.30
21807;DHT22;11065;50.786;7.840;2023-06-22T06:38:22;24.40;64.40
21807;DHT22;11065;50.786;7.840;2023-06-22T06:40:50;24.40;64.40
21807;DHT22;11065;50.786;7.840;2023-06-22T06:43:18;24.50;64.80
21807;DHT22;11065;50.786;7.840;2023-06-22T06:45:48;24.70;65.40
21807;DHT22;11065;50.786;7.840;2023-06-22T06:48:19;24.70;65.30
21807;DHT22;11065;50.786;7.840;2023-06-22T06:50:47;24.80;65.30
21807;DHT22;11065;50.786;7.840;2023-06-22T06:53:15;25.00;65.20
21807;DHT22;11065;50.786;7.840;2023-06-22T06:55:43;25.10;64.70
21807;DHT22;11065;50.786;7.840;2023-06-22T06:58:12;25.20;64.50
21807;DHT22;11065;50.786;7.840;2023-06-22T07:00:40;25.30;64.40
21807;DHT22;11065;50.786;7.840;2023-06-22T07:03:09;25.50;64.30
21807;DHT22;11065;50.786;7.840;2023-06-22T07:05:37;25.60;64.10
21807;DHT22;11065;50.786;7.840;2023-06-22T07:08:06;25.70;63.60
21807;DHT22;11065;50.786;7.840;2023-06-22T07:10:34;25.70;63.10
21807;DHT22;11065;50.786;7.840;2023-06-22T07:13:02;25.90;63.30
21807;DHT22;11065;50.786;7.840;2023-06-22T07:15:30;25.90;63.20
21807;DHT22;11065;50.786;7.840;2023-06-22T07:17:58;26.10;62.90
21807;DHT22;11065;50.786;7.840;2023-06-22T07:20:27;26.20;62.90
21807;DHT22;11065;50.786;7.840;2023-06-22T07:22:56;26.30;62.50
21807;DHT22;11065;50.786;7.840;2023-06-22T07:25:25;26.40;62.40
21807;DHT22;11065;50.786;7.840;2023-06-22T07:28:00;26.50;61.70
21807;DHT22;11065;50.786;7.840;2023-06-22T07:30:29;26.50;61.20
21807;DHT22;11065;50.786;7.840;2023-06-22T07:32:58;26.70;62.00
21807;DHT22;11065;50.786;7.840;2023-06-22T07:35:32;26.80;61.50
21807;DHT22;11065;50.786;7.840;2023-06-22T07:38:00;26.90;61.60
21807;DHT22;11065;50.786;7.840;2023-06-22T07:40:31;27.00;61.30
21807;DHT22;11065;50.786;7.840;2023-06-22T07:43:00;27.20;61.00
21807;DHT22;11065;50.786;7.840;2023-06-22T07:45:29;27.30;60.60
21807;DHT22;11065;50.786;7.840;2023-06-22T07:47:57;27.40;60.60
21807;DHT22;11065;50.786;7.840;2023-06-22T07:50:25;27.50;60.50
21807;DHT22;11065;50.786;7.840;2023-06-22T07:52:55;27.70;60.40
21807;DHT22;11065;50.786;7.840;2023-06-22T07:55:23;27.70;60.10
21807;DHT22;11065;50.786;7.840;2023-06-22T07:57:51;27.90;60.50
21807;DHT22;11065;50.786;7.840;2023-06-22T08:00:19;28.00;59.90
21807;DHT22;11065;50.786;7.840;2023-06-22T08:02:48;28.10;59.60
21807;DHT22;11065;50.786;7.840;2023-06-22T08:05:16;28.20;59.40
21807;DHT22;11065;50.786;7.840;2023-06-22T08:07:49;28.40;59.20
21807;DHT22;11065;50.786;7.840;2023-06-22T08:10:19;28.50;59.10
21807;DHT22;11065;50.786;7.840;2023-06-22T08:12:47;28.70;58.70
21807;DHT22;11065;50.786;7.840;2023-06-22T08:15:16;28.70;58.50
21807;DHT22;11065;50.786;7.840;2023-06-22T08:17:44;28.90;58.60
21807;DHT22;11065;50.786;7.840;2023-06-22T08:20:12;29.00;58.40
21807;DHT22;11065;50.786;7.840;2023-06-22T08:22:41;29.20;58.50
21807;DHT22;11065;50.786;7.840;2023-06-22T08:25:10;29.20;58.10
21807;DHT22;11065;50.786;7.840;2023-06-22T08:27:44;29.40;58.10
21807;DHT22;11065;50.786;7.840;2023-06-22T08:30:13;29.60;57.30
21807;DHT22;11065;50.786;7.840;2023-06-22T08:32:41;29.50;57.50
21807;DHT22;11065;50.786;7.840;2023-06-22T08:35:09;29.60;57.40
21807;DHT22;11065;50.786;7.840;2023-06-22T08:37:37;29.70;57.00
21807;DHT22;11065;50.786;7.840;2023-06-22T08:40:08;29.80;57.10
21807;DHT22;11065;50.786;7.840;2023-06-22T08:42:40;29.80;56.60
21807;DHT22;11065;50.786;7.840;2023-06-22T08:45:10;29.80;56.60
21807;DHT22;11065;50.786;7.840;2023-06-22T08:47:38;29.90;56.30
21807;DHT22;11065;50.786;7.840;2023-06-22T08:50:08;29.90;56.20
21807;DHT22;11065;50.786;7.840;2023-06-22T08:52:37;30.00;56.10
21807;DHT22;11065;50.786;7.840;2023-06-22T08:55:08;30.10;56.00
21807;DHT22;11065;50.786;7.840;2023-06-22T08:57:37;30.10;56.00
21807;DHT22;11065;50.786;7.840;2023-06-22T09:00:08;30.30;55.70
21807;DHT22;11065;50.786;7.840;2023-06-22T09:02:48;30.30;55.10
21807;DHT22;11065;50.786;7.840;2023-06-22T09:05:17;30.40;55.20
21807;DHT22;11065;50.786;7.840;2023-06-22T09:07:45;30.50;55.10
21807;DHT22;11065;50.786;7.840;2023-06-22T09:10:13;30.70;54.80
21807;DHT22;11065;50.786;7.840;2023-06-22T09:12:41;30.80;54.40
21807;DHT22;11065;50.786;7.840;2023-06-22T09:15:10;31.00;54.00
21807;DHT22;11065;50.786;7.840;2023-06-22T09:17:43;31.10;53.80
21807;DHT22;11065;50.786;7.840;2023-06-22T09:20:15;31.20;53.30
21807;DHT22;11065;50.786;7.840;2023-06-22T09:22:43;31.30;52.50
21807;DHT22;11065;50.786;7.840;2023-06-22T09:25:11;31.30;52.50
21807;DHT22;11065;50.786;7.840;2023-06-22T09:27:39;31.40;52.20
21807;DHT22;11065;50.786;7.840;2023-06-22T09:30:08;31.40;51.90
21807;DHT22;11065;50.786;7.840;2023-06-22T09:32:36;31.40;51.40
21807;DHT22;11065;50.786;7.840;2023-06-22T09:35:05;31.40;51.30
21807;DHT22;11065;50.786;7.840;2023-06-22T09:37:36;31.40;51.00
21807;DHT22;11065;50.786;7.840;2023-06-22T09:40:06;31.50;50.90
21807;DHT22;11065;50.786;7.840;2023-06-22T09:42:37;31.50;51.00
21807;DHT22;11065;50.786;7.840;2023-06-22T09:45:05;31.50;50.90
21807;DHT22;11065;50.786;7.840;2023-06-22T09:47:33;31.60;50.70
21807;DHT22;11065;50.786;7.840;2023-06-22T09:50:02;31.70;50.80
21807;DHT22;11065;50.786;7.840;2023-06-22T09:52:30;31.70;50.70
21807;DHT22;11065;50.786;7.840;2023-06-22T09:55:14;31.80;50.50
21807;DHT22;11065;50.786;7.840;2023-06-22T09:57:43;31.90;50.40
21807;DHT22;11065;50.786;7.840;2023-06-22T10:00:12;31.90;50.30
21807;DHT22;11065;50.786;7.840;2023-06-22T10:02:42;32.00;50.00
21807;DHT22;11065;50.786;7.840;2023-06-22T10:05:10;32.00;49.80
21807;DHT22;11065;50.786;7.840;2023-06-22T10:07:39;32.10;49.80
21807;DHT22;11065;50.786;7.840;2023-06-22T10:10:11;32.00;49.50
21807;DHT22;11065;50.786;7.840;2023-06-22T10:12:45;32.10;49.70
21807;DHT22;11065;50.786;7.840;2023-06-22T10:15:13;32.30;49.70
21807;DHT22;11065;50.786;7.840;2023-06-22T10:17:42;32.50;49.80
21807;DHT22;11065;50.786;7.840;2023-06-22T10:20:10;32.60;49.30
21807;DHT22;11065;50.786;7.840;2023-06-22T10:22:40;32.60;48.60
21807;DHT22;11065;50.786;7.840;2023-06-22T10:25:09;32.60;48.30
21807;DHT22;11065;50.786;7.840;2023-06-22T10:27:37;32.60;48.10
21807;DHT22;11065;50.786;7.840;2023-06-22T10:30:09;32.60;48.00
21807;DHT22;11065;50.786;7.840;2023-06-22T10:32:40;32.50;47.60
21807;DHT22;11065;50.786;7.840;2023-06-22T10:35:09;32.50;47.60
21807;DHT22;11065;50.786;7.840;2023-06-22T10:37:40;32.40;47.40
21807;DHT22;11065;50.786;7.840;2023-06-22T10:40:11;32.30;47.10
21807;DHT22;11065;50.786;7.840;2023-06-22T10:42:39;32.10;46.90
21807;DHT22;11065;50.786;7.840;2023-06-22T10:45:09;31.90;46.80
21807;DHT22;11065;50.786;7.840;2023-06-22T10:47:37;31.70;46.90
21807;DHT22;11065;50.786;7.840;2023-06-22T10:50:06;31.60;47.60
21807;DHT22;11065;50.786;7.840;2023-06-22T10:52:34;31.50;47.60
21807;DHT22;11065;50.786;7.840;2023-06-22T10:55:02;31.30;47.80
21807;DHT22;11065;50.786;7.840;2023-06-22T10:57:30;31.10;47.90
21807;DHT22;11065;50.786;7.840;2023-06-22T10:59:58;31.00;48.20
21807;DHT22;11065;50.786;7.840;2023-06-22T11:02:28;30.80;48.60
21807;DHT22;11065;50.786;7.840;2023-06-22T11:04:56;30.60;47.80
21807;DHT22;11065;50.786;7.840;2023-06-22T11:07:27;30.50;47.90
21807;DHT22;11065;50.786;7.840;2023-06-22T11:09:55;30.30;48.50
21807;DHT22;11065;50.786;7.840;2023-06-22T11:12:23;30.20;49.40
21807;DHT22;11065;50.786;7.840;2023-06-22T11:14:52;30.10;50.20
21807;DHT22;11065;50.786;7.840;2023-06-22T11:17:20;30.10;50.70
21807;DHT22;11065;50.786;7.840;2023-06-22T11:19:50;30.10;50.90
21807;DHT22;11065;50.786;7.840;2023-06-22T11:22:18;30.10;51.60
21807;DHT22;11065;50.786;7.840;2023-06-22T11:24:46;30.30;52.40
21807;DHT22;11065;50.786;7.840;2023-06-22T11:27:15;30.40;52.70
21807;DHT22;11065;50.786;7.840;2023-06-22T11:29:43;30.60;52.40
21807;DHT22;11065;50.786;7.840;2023-06-22T11:32:11;30.80;52.10
21807;DHT22;11065;50.786;7.840;2023-06-22T11:34:40;30.90;51.90
21807;DHT22;11065;50.786;7.840;2023-06-22T11:37:10;31.00;51.60
21807;DHT22;11065;50.786;7.840;2023-06-22T11:39:38;30.90;51.30
21807;DHT22;11065;50.786;7.840;2023-06-22T11:42:14;30.90;51.20
21807;DHT22;11065;50.786;7.840;2023-06-22T11:44:42;30.80;51.10
21807;DHT22;11065;50.786;7.840;2023-06-22T11:47:11;30.80;51.30
21807;DHT22;11065;50.786;7.840;2023-06-22T11:49:39;30.70;51.20
21807;DHT22;11065;50.786;7.840;2023-06-22T11:52:07;30.60;51.40
21807;DHT22;11065;50.786;7.840;2023-06-22T11:54:36;30.60;51.50
21807;DHT22;11065;50.786;7.840;2023-06-22T11:57:05;30.60;51.50
21807;DHT22;11065;50.786;7.840;2023-06-22T11:59:33;30.60;51.50
21807;DHT22;11065;50.786;7.840;2023-06-22T12:02:01;30.60;51.30
21807;DHT22;11065;50.786;7.840;2023-06-22T12:04:29;30.50;51.00
21807;DHT22;11065;50.786;7.840;2023-06-22T12:06:56;30.40;50.60
21807;DHT22;11065;50.786;7.840;2023-06-22T12:09:25;30.20;50.70
21807;DHT22;11065;50.786;7.840;2023-06-22T12:11:54;30.20;50.80
21807;DHT22;11065;50.786;7.840;2023-06-22T12:14:22;30.10;51.00
21807;DHT22;11065;50.786;7.840;2023-06-22T12:16:50;30.10;51.40
21807;DHT22;11065;50.786;7.840;2023-06-22T12:19:18;30.20;51.80
21807;DHT22;11065;50.786;7.840;2023-06-22T12:21:46;30.30;52.30
21807;DHT22;11065;50.786;7.840;2023-06-22T12:24:14;30.40;51.40
21807;DHT22;11065;50.786;7.840;2023-06-22T12:26:42;30.60;50.90
21807;DHT22;11065;50.786;7.840;2023-06-22T12:29:12;30.80;50.90
21807;DHT22;11065;50.786;7.840;2023-06-22T12:31:40;31.00;50.40
21807;DHT22;11065;50.786;7.840;2023-06-22T12:34:08;31.40;50.40
21807;DHT22;11065;50.786;7.840;2023-06-22T12:36:36;31.50;49.80
21807;DHT22;11065;50.786;7.840;2023-06-22T12:39:04;31.80;49.90
21807;DHT22;11065;50.786;7.840;2023-06-22T12:41:32;32.10;50.00
21807;DHT22;11065;50.786;7.840;2023-06-22T12:44:00;32.50;49.60
21807;DHT22;11065;50.786;7.840;2023-06-22T12:46:30;32.80;49.20
21807;DHT22;11065;50.786;7.840;2023-06-22T12:49:04;33.20;48.30
21807;DHT22;11065;50.786;7.840;2023-06-22T12:51:32;33.30;47.60
21807;DHT22;11065;50.786;7.840;2023-06-22T12:54:01;33.50;47.00
21807;DHT22;11065;50.786;7.840;2023-06-22T12:56:29;33.60;47.10
21807;DHT22;11065;50.786;7.840;2023-06-22T12:58:57;33.80;46.90
21807;DHT22;11065;50.786;7.840;2023-06-22T13:01:26;34.00;46.70
21807;DHT22;11065;50.786;7.840;2023-06-22T13:03:55;34.20;46.50
21807;DHT22;11065;50.786;7.840;2023-06-22T13:06:24;34.30;45.90
21807;DHT22;11065;50.786;7.840;2023-06-22T13:08:52;34.40;46.00
21807;DHT22;11065;50.786;7.840;2023-06-22T13:11:23;34.60;46.10
21807;DHT22;11065;50.786;7.840;2023-06-22T13:13:51;34.70;45.90
21807;DHT22;11065;50.786;7.840;2023-06-22T13:16:19;35.00;45.70
21807;DHT22;11065;50.786;7.840;2023-06-22T13:18:47;35.20;45.40
21807;DHT22;11065;50.786;7.840;2023-06-22T13:21:16;35.40;45.20
21807;DHT22;11065;50.786;7.840;2023-06-22T13:23:45;35.70;44.80
21807;DHT22;11065;50.786;7.840;2023-06-22T13:26:13;35.90;44.50
21807;DHT22;11065;50.786;7.840;2023-06-22T13:28:40;36.00;44.20
21807;DHT22;11065;50.786;7.840;2023-06-22T13:31:08;36.10;44.00
21807;DHT22;11065;50.786;7.840;2023-06-22T13:33:38;36.20;44.00
21807;DHT22;11065;50.786;7.840;2023-06-22T13:36:07;36.30;43.80
21807;DHT22;11065;50.786;7.840;2023-06-22T13:38:36;36.50;43.70
21807;DHT22;11065;50.786;7.840;2023-06-22T13:41:05;36.70;43.50
21807;DHT22;11065;50.786;7.840;2023-06-22T13:43:33;36.80;43.40
21807;DHT22;11065;50.786;7.840;2023-06-22T13:46:01;36.90;43.20
21807;DHT22;11065;50.786;7.840;2023-06-22T13:48:30;37.00;42.80
21807;DHT22;11065;50.786;7.840;2023-06-22T13:50:58;37.10;42.30
21807;DHT22;11065;50.786;7.840;2023-06-22T13:53:26;37.10;42.10
21807;DHT22;11065;50.786;7.840;2023-06-22T13:55:55;37.00;41.80
21807;DHT22;11065;50.786;7.840;2023-06-22T13:58:24;36.90;41.20
21807;DHT22;11065;50.786;7.840;2023-06-22T14:00:51;36.80;41.30
21807;DHT22;11065;50.786;7.840;2023-06-22T14:03:23;36.70;41.40
21807;DHT22;11065;50.786;7.840;2023-06-22T14:05:51;36.60;41.40
21807;DHT22;11065;50.786;7.840;2023-06-22T14:08:21;36.50;41.20
21807;DHT22;11065;50.786;7.840;2023-06-22T14:11:09;36.30;40.80
21807;DHT22;11065;50.786;7.840;2023-06-22T14:13:37;36.10;40.70
21807;DHT22;11065;50.786;7.840;2023-06-22T14:16:05;35.90;40.70
21807;DHT22;11065;50.786;7.840;2023-06-22T14:18:33;35.60;40.50
21807;DHT22;11065;50.786;7.840;2023-06-22T14:21:01;35.40;40.60
21807;DHT22;11065;50.786;7.840;2023-06-22T14:23:29;35.10;40.70
21807;DHT22;11065;50.786;7.840;2023-06-22T14:25:59;34.80;40.80
21807;DHT22;11065;50.786;7.840;2023-06-22T14:28:28;34.50;41.00
21807;DHT22;11065;50.786;7.840;2023-06-22T14:30:57;34.20;41.10
21807;DHT22;11065;50.786;7.840;2023-06-22T14:33:25;34.10;41.30
21807;DHT22;11065;50.786;7.840;2023-06-22T14:35:53;33.80;41.40
21807;DHT22;11065;50.786;7.840;2023-06-22T14:38:21;33.60;41.60
21807;DHT22;11065;50.786;7.840;2023-06-22T14:40:49;33.40;41.70
21807;DHT22;11065;50.786;7.840;2023-06-22T14:43:38;33.20;41.90
21807;DHT22;11065;50.786;7.840;2023-06-22T14:46:12;33.00;41.90
21807;DHT22;11065;50.786;7.840;2023-06-22T14:48:40;32.80;42.00
21807;DHT22;11065;50.786;7.840;2023-06-22T14:51:08;32.60;42.20
21807;DHT22;11065;50.786;7.840;2023-06-22T14:53:42;32.40;42.30
21807;DHT22;11065;50.786;7.840;2023-06-22T14:56:10;32.20;42.40
21807;DHT22;11065;50.786;7.840;2023-06-22T14:58:41;32.00;42.60
21807;DHT22;11065;50.786;7.840;2023-06-22T15:01:12;31.80;42.90
21807;DHT22;11065;50.786;7.840;2023-06-22T15:03:40;31.60;42.90
21807;DHT22;11065;50.786;7.840;2023-06-22T15:06:08;31.40;43.20
21807;DHT22;11065;50.786;7.840;2023-06-22T15:08:37;31.20;43.10
21807;DHT22;11065;50.786;7.840;2023-06-22T15:11:06;30.90;43.10
21807;DHT22;11065;50.786;7.840;2023-06-22T15:13:34;30.60;43.50
21807;DHT22;11065;50.786;7.840;2023-06-22T15:16:04;30.20;43.60
21807;DHT22;11065;50.786;7.840;2023-06-22T15:18:32;29.80;43.80
21807;DHT22;11065;50.786;7.840;2023-06-22T15:21:02;29.40;44.10
21807;DHT22;11065;50.786;7.840;2023-06-22T15:23:31;29.00;44.60
21807;DHT22;11065;50.786;7.840;2023-06-22T15:26:02;28.60;45.30
21807;DHT22;11065;50.786;7.840;2023-06-22T15:28:31;28.10;46.00
21807;DHT22;11065;50.786;7.840;2023-06-22T15:31:02;27.60;47.10
21807;DHT22;11065;50.786;7.840;2023-06-22T15:33:31;27.10;48.10
21807;DHT22;11065;50.786;7.840;2023-06-22T15:35:59;26.70;49.20
21807;DHT22;11065;50.786;7.840;2023-06-22T15:38:31;26.30;49.80
21807;DHT22;11065;50.786;7.840;2023-06-22T15:40:59;25.90;50.10
21807;DHT22;11065;50.786;7.840;2023-06-22T15:43:28;25.60;50.50